Time;durP1;ratioP1;P1;durP2;ratioP2;P2;SDS_P1;SDS_P2;PMS_P1;PMS_P2;Temp;Humidity;BMP_temperature;BMP_pressure;BME280_temperature;BME280_humidity;BME280_pressure;Samples;Min_cycle;Max_cycle;Signal;HPM_P1;HPM_P2
2023/02/10 00:01:09;;;;;;;44.40;25.77;;;5.70;99.90;;;;;;6214197;23;20163;-75
2023/02/10 00:03:38;;;;;;;42.03;23.93;;;5.80;99.90;;;;;;6214187;23;20155;-75
2023/02/10 00:06:05;;;;;;;46.43;25.37;;;5.80;99.90;;;;;;6216149;23;20161;-76
2023/02/10 00:08:32;;;;;;;45.70;24.93;;;5.80;99.90;;;;;;6214398;23;20450;-75
2023/02/10 00:11:01;;;;;;;43.63;25.60;;;5.70;99.90;;;;;;6216007;23;20466;-75
2023/02/10 00:13:27;;;;;;;45.93;25.00;;;5.70;99.90;;;;;;6215406;23;20470;-76
2023/02/10 00:16:00;;;;;;;44.30;26.23;;;5.50;99.90;;;;;;6214050;23;20208;-75
2023/02/10 00:18:29;;;;;;;46.07;25.70;;;5.70;99.90;;;;;;6213768;23;20240;-75
2023/02/10 00:21:04;;;;;;;44.67;25.93;;;5.70;99.90;;;;;;6215541;23;20219;-75
2023/02/10 00:23:30;;;;;;;44.87;26.57;;;5.60;99.90;;;;;;6215115;23;20129;-73
2023/02/10 00:25:56;;;;;;;47.90;26.53;;;5.50;99.90;;;;;;6215460;23;20157;-72
2023/02/10 00:28:25;;;;;;;53.00;26.40;;;5.50;99.90;;;;;;6214726;23;20235;-73
2023/02/10 00:30:51;;;;;;;46.87;26.03;;;5.40;99.90;;;;;;6213331;23;20201;-71
2023/02/10 00:33:17;;;;;;;50.07;26.77;;;5.40;99.90;;;;;;6213607;23;20233;-72
2023/02/10 00:35:43;;;;;;;45.33;26.10;;;5.30;99.90;;;;;;6215388;23;20162;-71
2023/02/10 00:38:09;;;;;;;44.50;26.33;;;5.30;99.90;;;;;;6214282;23;20196;-72
2023/02/10 00:40:35;;;;;;;45.70;26.53;;;5.30;99.90;;;;;;6215780;23;20136;-72
2023/02/10 00:43:01;;;;;;;50.50;27.07;;;5.40;99.90;;;;;;6215551;23;20153;-73
2023/02/10 00:45:26;;;;;;;52.93;27.20;;;5.40;99.90;;;;;;6213574;23;20156;-72
2023/02/10 00:47:53;;;;;;;46.47;26.43;;;5.60;99.90;;;;;;6215554;23;20194;-71
2023/02/10 00:50:18;;;;;;;46.07;26.07;;;5.60;99.90;;;;;;6215582;23;20134;-73
2023/02/10 00:52:44;;;;;;;48.00;27.27;;;5.70;99.90;;;;;;6215262;23;20514;-72
2023/02/10 00:55:09;;;;;;;49.83;28.17;;;5.90;99.90;;;;;;6215373;23;20194;-71
2023/02/10 00:57:35;;;;;;;49.63;27.30;;;5.80;99.90;;;;;;6215269;23;20138;-72
2023/02/10 01:00:01;;;;;;;43.90;27.10;;;5.70;99.90;;;;;;6215181;23;20162;-72
2023/02/10 01:02:27;;;;;;;49.03;28.37;;;5.50;99.90;;;;;;6214621;23;20236;-73
2023/02/10 01:04:53;;;;;;;47.20;26.67;;;5.80;99.90;;;;;;6214923;23;20148;-73
2023/02/10 01:07:18;;;;;;;52.63;28.07;;;5.70;99.90;;;;;;6215177;23;20209;-73
2023/02/10 01:09:44;;;;;;;46.73;27.57;;;5.60;99.90;;;;;;6213261;23;20176;-72
2023/02/10 01:12:11;;;;;;;44.33;26.37;;;5.50;99.90;;;;;;6214701;23;20149;-72
2023/02/10 01:14:37;;;;;;;48.27;26.83;;;5.30;99.90;;;;;;6215081;23;20209;-71
2023/02/10 01:17:03;;;;;;;44.20;26.07;;;5.10;99.90;;;;;;6213235;23;20142;-71
2023/02/10 01:19:29;;;;;;;49.30;26.77;;;5.10;99.90;;;;;;6214918;23;20206;-71
2023/02/10 01:21:55;;;;;;;48.83;27.83;;;5.20;99.90;;;;;;6214710;23;20583;-74
2023/02/10 01:24:21;;;;;;;46.13;27.83;;;5.40;99.90;;;;;;6215296;23;20132;-73
2023/02/10 01:26:47;;;;;;;49.83;27.70;;;5.40;99.90;;;;;;6214775;23;20138;-73
2023/02/10 01:29:13;;;;;;;50.53;28.47;;;5.30;99.90;;;;;;6215018;23;20192;-71
2023/02/10 01:31:38;;;;;;;49.20;28.90;;;5.30;99.90;;;;;;6214371;23;20147;-71
2023/02/10 01:34:04;;;;;;;52.70;27.93;;;5.50;99.90;;;;;;6213091;23;20177;-70
2023/02/10 01:36:30;;;;;;;49.73;27.43;;;5.50;99.90;;;;;;6213173;23;20204;-70
2023/02/10 01:38:55;;;;;;;52.37;29.07;;;5.50;99.90;;;;;;6214452;23;20220;-71
2023/02/10 01:41:23;;;;;;;49.37;27.77;;;5.20;99.90;;;;;;6214436;23;20192;-71
2023/02/10 01:43:59;;;;;;;54.43;28.33;;;5.20;99.90;;;;;;6214121;23;20142;-71
2023/02/10 01:46:26;;;;;;;50.33;28.13;;;5.30;99.90;;;;;;6212895;23;20151;-71
2023/02/10 01:48:55;;;;;;;45.30;26.10;;;5.20;99.90;;;;;;6213130;23;20154;-71
2023/02/10 01:51:28;;;;;;;51.60;28.37;;;5.20;99.90;;;;;;6215623;23;20141;-71
2023/02/10 01:53:55;;;;;;;54.80;28.23;;;5.20;99.90;;;;;;6215327;23;20556;-72
2023/02/10 01:56:21;;;;;;;53.17;28.80;;;5.10;99.90;;;;;;6215323;23;20167;-71
2023/02/10 01:58:46;;;;;;;45.07;27.93;;;5.20;99.90;;;;;;6216703;23;20136;-72
2023/02/10 02:01:12;;;;;;;53.30;28.47;;;5.20;99.90;;;;;;6214732;23;20169;-71
2023/02/10 02:03:41;;;;;;;51.37;29.00;;;5.10;99.90;;;;;;6215631;23;20594;-71
2023/02/10 02:06:07;;;;;;;53.97;27.53;;;5.20;99.90;;;;;;6217323;23;20150;-71
2023/02/10 02:08:33;;;;;;;52.13;28.80;;;5.30;99.90;;;;;;6215292;23;20150;-71
2023/02/10 02:11:18;;;;;;;52.03;26.97;;;5.30;99.90;;;;;;6214850;23;20150;-72
2023/02/10 02:14:23;;;;;;;54.30;28.47;;;5.30;99.90;;;;;;6216551;23;20594;-72
2023/02/10 02:17:02;;;;;;;51.43;26.97;;;5.30;99.90;;;;;;6215144;23;20449;-72
2023/02/10 02:22:59;;;;;;;50.47;26.97;;;5.30;99.90;;;;;;6177573;23;20166;-72
2023/02/10 02:25:35;;;;;;;51.73;26.60;;;5.20;99.90;;;;;;6216539;23;20140;-72
2023/02/10 02:28:19;;;;;;;57.70;28.07;;;5.10;99.90;;;;;;6215086;23;20156;-72
2023/02/10 02:31:07;;;;;;;51.20;28.20;;;5.20;99.90;;;;;;6214665;23;20161;-73
2023/02/10 02:33:52;;;;;;;63.30;30.43;;;5.20;99.90;;;;;;6214637;23;20729;-73
2023/02/10 02:36:30;;;;;;;56.53;29.13;;;5.30;99.90;;;;;;6215072;23;20134;-72
2023/02/10 02:39:00;;;;;;;56.10;28.73;;;5.30;99.90;;;;;;6215726;23;20196;-74
2023/02/10 02:41:27;;;;;;;54.10;27.80;;;5.10;99.90;;;;;;6215171;23;20200;-75
2023/02/10 02:43:55;;;;;;;59.70;30.43;;;5.10;99.90;;;;;;6216265;23;20134;-74
2023/02/10 02:46:52;;;;;;;56.23;29.23;;;5.10;99.90;;;;;;6216573;23;20139;-74
2023/02/10 02:49:43;;;;;;;54.03;28.17;;;5.20;99.90;;;;;;6173351;23;20161;-73
2023/02/10 02:52:20;;;;;;;64.23;30.30;;;5.20;99.90;;;;;;6216495;23;20514;-74
2023/02/10 02:54:59;;;;;;;57.90;28.97;;;5.30;99.90;;;;;;6214852;23;20603;-74
2023/02/10 02:57:46;;;;;;;57.47;29.43;;;5.20;99.90;;;;;;6216450;23;20130;-71
2023/02/10 03:00:17;;;;;;;63.20;29.70;;;5.10;99.90;;;;;;6215986;23;20176;-75
2023/02/10 03:02:47;;;;;;;65.57;31.80;;;5.10;99.90;;;;;;6214977;23;20194;-76
2023/02/10 03:05:28;;;;;;;63.03;32.00;;;5.10;99.90;;;;;;6216747;23;20177;-76
2023/02/10 03:07:55;;;;;;;68.60;31.27;;;5.00;99.90;;;;;;6216485;23;20131;-76
2023/02/10 03:10:23;;;;;;;66.37;31.23;;;5.10;99.90;;;;;;6216431;23;20499;-76
2023/02/10 03:12:53;;;;;;;68.60;32.33;;;5.10;99.90;;;;;;6216702;23;20552;-76
2023/02/10 03:15:20;;;;;;;66.80;30.50;;;5.10;99.90;;;;;;6215997;23;20166;-77
2023/02/10 03:17:52;;;;;;;68.93;31.03;;;5.20;99.90;;;;;;6216287;23;20134;-78
2023/02/10 03:20:18;;;;;;;63.30;29.80;;;5.20;99.90;;;;;;6216346;23;20509;-78
2023/02/10 03:22:44;;;;;;;68.03;31.23;;;5.30;99.90;;;;;;6215051;23;20180;-78
2023/02/10 03:25:19;;;;;;;72.80;31.77;;;5.20;99.90;;;;;;6214815;23;20475;-77
2023/02/10 03:27:46;;;;;;;73.37;31.57;;;5.40;99.90;;;;;;6214486;23;20227;-78
2023/02/10 03:30:15;;;;;;;69.13;32.20;;;5.70;99.90;;;;;;6216350;23;20583;-77
2023/02/10 03:32:41;;;;;;;73.30;32.43;;;5.60;99.90;;;;;;6214442;23;20146;-77
2023/02/10 03:35:08;;;;;;;77.33;33.60;;;5.50;99.90;;;;;;6214425;23;20178;-77
2023/02/10 03:37:33;;;;;;;76.10;31.63;;;5.50;99.90;;;;;;6216474;23;20130;-77
2023/02/10 03:39:59;;;;;;;72.23;31.73;;;5.30;99.90;;;;;;6214365;23;20156;-77
2023/02/10 03:42:24;;;;;;;81.10;33.33;;;5.20;99.90;;;;;;6215622;23;20219;-77
2023/02/10 03:44:54;;;;;;;77.07;32.23;;;5.10;99.90;;;;;;6216067;23;20132;-77
2023/02/10 03:47:21;;;;;;;81.37;32.10;;;5.20;99.90;;;;;;6214571;23;20157;-77
2023/02/10 03:49:53;;;;;;;82.57;33.30;;;5.10;99.90;;;;;;6216011;23;20204;-77
2023/02/10 03:52:19;;;;;;;84.40;33.87;;;5.10;99.90;;;;;;6216202;23;20170;-77
2023/02/10 03:54:46;;;;;;;91.77;34.93;;;5.10;99.90;;;;;;6215909;23;20168;-77
2023/02/10 03:57:12;;;;;;;86.87;32.90;;;5.00;99.90;;;;;;6215746;23;20556;-77
2023/02/10 03:59:38;;;;;;;86.87;33.23;;;5.10;99.90;;;;;;6214316;23;20643;-77
2023/02/10 04:02:06;;;;;;;89.30;33.10;;;5.00;99.90;;;;;;6215544;23;20246;-77
2023/02/10 04:04:36;;;;;;;86.70;33.87;;;4.90;99.90;;;;;;6216107;23;20211;-77
2023/02/10 04:07:02;;;;;;;89.80;33.50;;;4.80;99.90;;;;;;6216349;23;20125;-77
2023/02/10 04:09:31;;;;;;;96.57;35.60;;;4.80;99.90;;;;;;6214340;23;20145;-77
2023/02/10 04:11:58;;;;;;;89.97;34.70;;;4.90;99.90;;;;;;6215381;23;20134;-77
2023/02/10 04:14:26;;;;;;;84.33;34.77;;;4.90;99.90;;;;;;6213937;23;20589;-77
2023/02/10 04:16:52;;;;;;;96.40;36.23;;;4.90;99.90;;;;;;6215753;23;20138;-77
2023/02/10 04:19:21;;;;;;;84.60;33.87;;;5.00;99.90;;;;;;6216057;23;20129;-77
2023/02/10 04:21:48;;;;;;;94.40;36.13;;;4.90;99.90;;;;;;6215696;23;20141;-78
2023/02/10 04:24:14;;;;;;;92.97;36.03;;;4.90;99.90;;;;;;6215633;23;20133;-77
2023/02/10 04:26:40;;;;;;;88.80;34.80;;;4.80;99.90;;;;;;6213594;23;20151;-78
2023/02/10 04:29:07;;;;;;;88.83;35.20;;;4.80;99.90;;;;;;6215664;23;20134;-77
2023/02/10 04:31:32;;;;;;;96.53;36.63;;;4.80;99.90;;;;;;6215645;23;20134;-77
2023/02/10 04:33:58;;;;;;;91.77;37.10;;;4.90;99.90;;;;;;6215225;23;20160;-77
2023/02/10 04:36:26;;;;;;;90.80;36.47;;;4.90;99.90;;;;;;6213895;23;20583;-78
2023/02/10 04:38:54;;;;;;;92.77;36.87;;;4.70;99.90;;;;;;6215594;23;20140;-77
2023/02/10 04:41:28;;;;;;;89.17;36.93;;;4.90;99.90;;;;;;6215061;23;20129;-76
2023/02/10 04:43:56;;;;;;;93.60;38.67;;;4.90;99.90;;;;;;6215403;23;20221;-76
2023/02/10 04:46:25;;;;;;;93.03;38.63;;;4.90;99.90;;;;;;6213986;23;20238;-76
2023/02/10 04:48:51;;;;;;;92.30;36.10;;;4.80;99.90;;;;;;6213372;23;20153;-72
2023/02/10 04:51:16;;;;;;;99.03;37.07;;;4.70;99.90;;;;;;6215013;23;20221;-72
2023/02/10 04:53:44;;;;;;;95.23;35.73;;;4.70;99.90;;;;;;6214998;23;20139;-73
2023/02/10 04:56:10;;;;;;;104.43;38.93;;;4.70;99.90;;;;;;6215176;23;20699;-72
2023/02/10 04:58:36;;;;;;;91.90;38.67;;;4.80;99.90;;;;;;6215324;23;20135;-72
2023/02/10 05:01:03;;;;;;;90.83;38.40;;;4.70;99.90;;;;;;6214692;23;20277;-72
2023/02/10 05:03:28;;;;;;;86.83;38.50;;;4.80;99.90;;;;;;6213526;23;20463;-72
2023/02/10 05:05:54;;;;;;;96.13;40.37;;;4.80;99.90;;;;;;6213828;23;20131;-72
2023/02/10 05:08:23;;;;;;;95.67;39.60;;;4.90;99.90;;;;;;6213310;23;20136;-72
2023/02/10 05:10:50;;;;;;;88.93;39.07;;;5.00;99.90;;;;;;6212396;23;20140;-72
2023/02/10 05:13:17;;;;;;;85.83;39.27;;;5.00;99.90;;;;;;6213863;23;20138;-72
2023/02/10 05:15:43;;;;;;;94.30;39.47;;;4.90;99.90;;;;;;6214014;23;20542;-72
2023/02/10 05:18:10;;;;;;;94.63;40.97;;;4.90;99.90;;;;;;6212780;23;20153;-72
2023/02/10 05:20:36;;;;;;;88.77;39.83;;;4.80;99.90;;;;;;6212395;23;20478;-72
2023/02/10 05:23:01;;;;;;;80.97;39.93;;;4.80;99.90;;;;;;6212790;23;20138;-72
2023/02/10 05:25:27;;;;;;;95.37;42.87;;;4.70;99.90;;;;;;6215054;23;20141;-72
2023/02/10 05:27:53;;;;;;;79.20;37.93;;;5.10;99.90;;;;;;6214792;23;20162;-72
2023/02/10 05:30:20;;;;;;;75.10;37.43;;;5.20;99.90;;;;;;6212908;23;20597;-71
2023/02/10 05:32:46;;;;;;;72.07;35.23;;;5.10;99.90;;;;;;6217367;23;20144;-73
2023/02/10 05:35:12;;;;;;;77.27;37.50;;;4.90;99.90;;;;;;6218323;23;20162;-73
2023/02/10 05:37:37;;;;;;;69.53;35.80;;;4.90;99.90;;;;;;6217926;23;20162;-73
2023/02/10 05:40:05;;;;;;;71.13;35.17;;;4.90;99.90;;;;;;6218006;23;20625;-73
2023/02/10 05:42:30;;;;;;;73.63;36.70;;;5.00;99.90;;;;;;6218022;23;20146;-73
2023/02/10 05:44:56;;;;;;;78.57;36.97;;;4.70;99.90;;;;;;6216490;23;20606;-73
2023/02/10 05:47:22;;;;;;;81.73;37.10;;;4.60;99.90;;;;;;6216608;23;20149;-73
2023/02/10 05:49:47;;;;;;;73.53;36.93;;;4.70;99.90;;;;;;6218194;23;20443;-73
2023/02/10 05:52:14;;;;;;;76.67;36.70;;;4.60;99.90;;;;;;6215989;23;20176;-72
2023/02/10 05:54:42;;;;;;;76.97;38.47;;;4.70;99.90;;;;;;6217794;23;20168;-73
2023/02/10 05:57:09;;;;;;;80.80;38.03;;;4.60;99.90;;;;;;6217918;23;20126;-72
2023/02/10 05:59:34;;;;;;;80.93;39.73;;;4.80;99.90;;;;;;6218049;23;20211;-72
2023/02/10 06:02:01;;;;;;;76.73;39.37;;;4.80;99.90;;;;;;6217707;23;20189;-71
2023/02/10 06:04:26;;;;;;;76.50;39.43;;;4.70;99.90;;;;;;6218009;23;20224;-71
2023/02/10 06:06:52;;;;;;;77.43;40.77;;;4.80;99.90;;;;;;6217942;23;20136;-71
2023/02/10 06:09:18;;;;;;;82.60;40.37;;;4.90;99.90;;;;;;6217856;23;20135;-71
2023/02/10 06:11:44;;;;;;;80.23;39.17;;;4.70;99.90;;;;;;6217850;23;20164;-72
2023/02/10 06:14:10;;;;;;;73.87;38.70;;;4.50;99.90;;;;;;6216166;23;20191;-71
2023/02/10 06:16:36;;;;;;;79.30;39.83;;;4.50;99.90;;;;;;6218011;23;20133;-72
2023/02/10 06:19:01;;;;;;;76.07;40.27;;;4.70;99.90;;;;;;6217853;23;20165;-71
2023/02/10 06:21:27;;;;;;;73.50;40.27;;;4.80;99.90;;;;;;6217391;23;20134;-72
2023/02/10 06:23:53;;;;;;;73.70;38.37;;;4.70;99.90;;;;;;6216184;23;20156;-72
2023/02/10 06:26:18;;;;;;;73.83;38.57;;;4.60;99.90;;;;;;6218096;23;20195;-72
2023/02/10 06:28:44;;;;;;;66.67;36.80;;;4.60;99.90;;;;;;6217726;23;20196;-72
2023/02/10 06:31:16;;;;;;;72.10;38.93;;;4.50;99.90;;;;;;6217911;23;20181;-72
2023/02/10 06:33:41;;;;;;;71.63;38.10;;;4.50;99.90;;;;;;6218187;23;20196;-72
2023/02/10 06:36:08;;;;;;;73.43;40.47;;;4.50;99.90;;;;;;6217651;23;20134;-72
2023/02/10 06:38:36;;;;;;;76.70;39.53;;;4.60;99.90;;;;;;6217834;23;20603;-72
2023/02/10 06:41:02;;;;;;;74.73;40.23;;;4.50;99.90;;;;;;6217589;23;20131;-72
2023/02/10 06:43:28;;;;;;;66.57;38.20;;;4.60;99.90;;;;;;6214999;23;20151;-72
2023/02/10 06:45:53;;;;;;;80.77;40.23;;;4.70;99.90;;;;;;6216351;23;20160;-72
2023/02/10 06:48:19;;;;;;;69.47;37.40;;;4.60;99.90;;;;;;6214782;23;20156;-72
2023/02/10 06:50:44;;;;;;;75.43;40.10;;;4.70;99.90;;;;;;6215968;23;20171;-72
2023/02/10 06:53:10;;;;;;;68.10;38.27;;;4.70;99.90;;;;;;6216265;23;20218;-72
2023/02/10 06:55:36;;;;;;;71.60;39.23;;;4.90;99.90;;;;;;6216482;23;20192;-72
2023/02/10 06:58:02;;;;;;;73.67;39.10;;;4.80;99.90;;;;;;6214723;23;20152;-72
2023/02/10 07:00:29;;;;;;;74.47;39.47;;;4.70;99.90;;;;;;6214284;23;20162;-72
2023/02/10 07:02:55;;;;;;;76.00;38.63;;;4.60;99.90;;;;;;6214398;23;20158;-72
2023/02/10 07:05:21;;;;;;;74.97;42.87;;;4.70;99.90;;;;;;6215817;23;20188;-72
2023/02/10 07:07:47;;;;;;;71.17;39.40;;;4.70;99.90;;;;;;6214246;23;20156;-72
2023/02/10 07:10:13;;;;;;;80.13;42.00;;;4.60;99.90;;;;;;6214504;23;20150;-72
2023/02/10 07:12:38;;;;;;;70.53;39.50;;;4.60;99.90;;;;;;6215848;23;20137;-71
2023/02/10 07:15:05;;;;;;;69.70;38.90;;;4.60;99.90;;;;;;6215616;23;20166;-72
2023/02/10 07:17:32;;;;;;;72.63;40.30;;;4.60;99.90;;;;;;6216411;23;20499;-72
2023/02/10 07:19:57;;;;;;;76.80;40.60;;;4.60;99.90;;;;;;6214703;23;20561;-72
2023/02/10 07:22:23;;;;;;;80.07;39.47;;;4.70;99.90;;;;;;6214525;23;20146;-72
2023/02/10 07:24:49;;;;;;;77.50;40.13;;;4.90;99.90;;;;;;6215899;23;20137;-72
2023/02/10 07:27:15;;;;;;;82.00;40.27;;;4.70;99.90;;;;;;6214960;23;20148;-72
2023/02/10 07:29:40;;;;;;;70.53;38.07;;;4.80;99.90;;;;;;6216046;23;20134;-73
2023/02/10 07:32:06;;;;;;;79.50;39.80;;;4.70;99.90;;;;;;6215742;23;20199;-72
2023/02/10 07:34:33;;;;;;;71.07;38.70;;;4.60;99.90;;;;;;6215319;23;20481;-72
2023/02/10 07:37:00;;;;;;;74.57;38.73;;;4.60;99.90;;;;;;6215620;23;20158;-72
2023/02/10 07:39:26;;;;;;;74.73;40.80;;;4.70;99.90;;;;;;6213300;23;20149;-73
2023/02/10 07:41:52;;;;;;;75.40;39.83;;;4.80;99.90;;;;;;6215833;23;20130;-73
2023/02/10 07:44:20;;;;;;;78.03;40.47;;;4.80;99.90;;;;;;6214211;23;20155;-73
2023/02/10 07:46:50;;;;;;;77.43;39.47;;;4.80;99.90;;;;;;6214424;23;20172;-72
2023/02/10 07:49:17;;;;;;;77.03;39.67;;;4.90;99.90;;;;;;6215372;23;20233;-72
2023/02/10 07:51:42;;;;;;;79.60;38.40;;;4.80;99.90;;;;;;6215496;23;20193;-72
2023/02/10 07:54:08;;;;;;;76.77;40.20;;;4.90;99.90;;;;;;6214313;23;20173;-73
2023/02/10 07:56:34;;;;;;;81.83;41.20;;;4.90;99.90;;;;;;6215438;23;20131;-73
2023/02/10 07:59:01;;;;;;;73.63;39.20;;;5.10;99.90;;;;;;6213749;23;20600;-73
2023/02/10 08:01:26;;;;;;;74.80;38.23;;;5.10;99.90;;;;;;6215145;23;20157;-72
2023/02/10 08:03:52;;;;;;;72.37;38.03;;;5.10;99.90;;;;;;6215074;23;20372;-73
2023/02/10 08:06:22;;;;;;;77.73;39.43;;;4.90;99.90;;;;;;6215136;23;20141;-73
2023/02/10 08:08:48;;;;;;;73.57;37.90;;;5.10;99.90;;;;;;6215110;23;20171;-72
2023/02/10 08:11:14;;;;;;;82.23;40.60;;;5.30;99.90;;;;;;6215420;23;20465;-73
2023/02/10 08:13:40;;;;;;;77.90;40.13;;;5.40;99.90;;;;;;6213725;23;20138;-72
2023/02/10 08:16:07;;;;;;;76.27;39.00;;;5.50;99.90;;;;;;6215215;23;20141;-72
2023/02/10 08:18:34;;;;;;;77.80;39.10;;;5.40;99.90;;;;;;6213528;23;20449;-72
2023/02/10 08:21:06;;;;;;;74.73;38.37;;;5.50;99.90;;;;;;6215280;23;20135;-73
2023/02/10 08:23:32;;;;;;;78.37;39.40;;;5.70;99.90;;;;;;6215411;23;20130;-72
2023/02/10 08:26:01;;;;;;;78.63;37.50;;;5.80;99.90;;;;;;6213472;23;20208;-72
2023/02/10 08:28:27;;;;;;;78.77;39.00;;;5.80;99.90;;;;;;6216159;23;20494;-72
2023/02/10 08:30:52;;;;;;;77.10;38.53;;;5.90;99.90;;;;;;6215502;23;20197;-73
2023/02/10 08:33:18;;;;;;;73.77;38.47;;;5.80;99.90;;;;;;6215293;23;20139;-72
2023/02/10 08:35:44;;;;;;;69.97;37.23;;;6.00;99.90;;;;;;6215491;23;20174;-72
2023/02/10 08:38:10;;;;;;;74.93;38.10;;;6.20;99.90;;;;;;6215449;23;20138;-72
2023/02/10 08:40:36;;;;;;;79.63;39.13;;;6.30;99.90;;;;;;6215151;23;20556;-72
2023/02/10 08:43:02;;;;;;;75.40;38.03;;;6.40;99.90;;;;;;6213584;23;20154;-72
2023/02/10 08:45:28;;;;;;;75.30;38.63;;;6.30;99.90;;;;;;6214883;23;20192;-72
2023/02/10 08:47:53;;;;;;;69.07;39.50;;;6.00;99.90;;;;;;6214785;23;20132;-72
2023/02/10 08:50:19;;;;;;;75.57;37.70;;;5.80;99.90;;;;;;6213651;23;20162;-73
2023/02/10 08:52:45;;;;;;;79.10;38.67;;;5.90;99.90;;;;;;6215233;23;20135;-72
2023/02/10 08:55:11;;;;;;;64.40;35.97;;;5.80;99.90;;;;;;6214897;23;20620;-72
2023/02/10 08:57:38;;;;;;;73.73;38.37;;;5.80;99.90;;;;;;6215205;23;20148;-72
2023/02/10 09:00:05;;;;;;;72.43;37.47;;;6.10;99.90;;;;;;6214830;23;20276;-72
2023/02/10 09:02:31;;;;;;;73.33;38.87;;;5.90;99.90;;;;;;6214600;23;20150;-71
2023/02/10 09:04:59;;;;;;;86.33;41.57;;;5.90;99.90;;;;;;6215036;23;20226;-72
2023/02/10 09:07:24;;;;;;;76.07;38.87;;;6.00;99.90;;;;;;6213065;23;20148;-72
2023/02/10 09:09:50;;;;;;;80.43;38.53;;;6.10;99.90;;;;;;6215135;23;20139;-72
2023/02/10 09:12:16;;;;;;;79.20;39.63;;;6.10;99.90;;;;;;6215186;23;20454;-72
2023/02/10 09:14:44;;;;;;;80.63;40.07;;;6.10;99.90;;;;;;6214978;23;20237;-72
2023/02/10 09:17:10;;;;;;;75.03;37.83;;;6.10;99.90;;;;;;6213465;23;20150;-72
2023/02/10 09:19:37;;;;;;;83.03;38.67;;;5.80;99.90;;;;;;6215135;23;20623;-72
2023/02/10 09:22:04;;;;;;;76.87;36.97;;;5.70;99.90;;;;;;6214713;23;20210;-72
2023/02/10 09:24:31;;;;;;;85.97;40.73;;;5.70;99.90;;;;;;6213228;23;20193;-72
2023/02/10 09:26:58;;;;;;;90.97;39.20;;;5.70;99.90;;;;;;6214682;23;20134;-72
2023/02/10 09:29:24;;;;;;;96.87;40.37;;;5.80;99.90;;;;;;6213190;23;20176;-72
2023/02/10 09:31:51;;;;;;;91.07;43.03;;;5.80;99.90;;;;;;6214859;23;20155;-72
2023/02/10 09:34:16;;;;;;;95.07;41.20;;;5.90;99.90;;;;;;6215006;23;20198;-71
2023/02/10 09:36:42;;;;;;;100.53;41.90;;;6.00;99.90;;;;;;6214728;23;20181;-72
2023/02/10 09:39:08;;;;;;;98.57;42.40;;;6.00;99.90;;;;;;6213444;23;20181;-72
2023/02/10 09:41:34;;;;;;;104.50;43.50;;;5.90;99.90;;;;;;6213094;23;20166;-72
2023/02/10 09:44:09;;;;;;;104.00;43.77;;;6.00;99.90;;;;;;6213004;23;20152;-72
2023/02/10 09:47:05;;;;;;;110.17;44.77;;;6.10;99.90;;;;;;6213272;23;20152;-72
2023/02/10 09:49:45;;;;;;;98.07;43.43;;;5.80;99.90;;;;;;6214844;23;20142;-72
2023/02/10 09:52:30;;;;;;;111.70;45.17;;;5.80;99.90;;;;;;6213272;23;20148;-72
2023/02/10 09:54:56;;;;;;;111.13;45.80;;;5.90;99.90;;;;;;6215127;23;20624;-72
2023/02/10 09:57:35;;;;;;;125.90;47.40;;;6.10;99.90;;;;;;6212700;23;20151;-72
2023/02/10 10:00:02;;;;;;;118.57;48.30;;;6.30;99.90;;;;;;6214136;23;20132;-72
2023/02/10 10:02:32;;;;;;;119.87;47.30;;;6.60;99.90;;;;;;6212678;23;20604;-72
2023/02/10 10:05:00;;;;;;;118.40;48.17;;;6.70;99.90;;;;;;6214701;23;20151;-72
2023/02/10 10:07:35;;;;;;;123.97;48.93;;;6.60;99.90;;;;;;6213078;23;20238;-73
2023/02/10 10:10:41;;;;;;;114.73;46.40;;;6.40;99.90;;;;;;6213103;23;20608;-72
2023/02/10 10:13:20;;;;;;;127.20;44.87;;;6.20;99.90;;;;;;6169103;23;20162;-73
2023/02/10 10:16:12;;;;;;;129.90;47.90;;;6.30;99.90;;;;;;6214894;23;20221;-73
2023/02/10 10:18:47;;;;;;;119.97;49.40;;;6.40;99.90;;;;;;6214251;23;20161;-73
2023/02/10 10:21:29;;;;;;;127.30;49.30;;;6.80;99.90;;;;;;6216627;23;20558;-73
2023/02/10 10:24:11;;;;;;;130.10;48.17;;;7.00;99.90;;;;;;6214900;23;20222;-72
2023/02/10 10:26:56;;;;;;;122.63;47.67;;;7.00;99.90;;;;;;6216761;23;20137;-72
2023/02/10 10:29:42;;;;;;;116.80;44.63;;;6.80;99.90;;;;;;6216228;23;20202;-72
2023/02/10 10:32:15;;;;;;;115.37;45.17;;;6.90;99.90;;;;;;6216169;23;20171;-72
2023/02/10 10:34:51;;;;;;;113.10;46.60;;;7.00;99.90;;;;;;6216667;23;20160;-73
2023/02/10 10:37:20;;;;;;;123.00;46.93;;;6.90;99.90;;;;;;6216849;23;20486;-72
2023/02/10 10:39:49;;;;;;;121.73;45.27;;;6.90;99.90;;;;;;6216574;23;20156;-71
2023/02/10 10:42:47;;;;;;;107.07;45.67;;;6.80;99.90;;;;;;6216363;23;20227;-72
2023/02/10 10:45:24;;;;;;;105.30;44.30;;;6.60;99.90;;;;;;6216574;23;20136;-72
2023/02/10 10:48:00;;;;;;;111.80;45.93;;;6.70;99.90;;;;;;6214931;23;20588;-72
2023/02/10 10:50:27;;;;;;;104.37;44.13;;;7.10;99.90;;;;;;6216253;23;20171;-72
2023/02/10 10:52:55;;;;;;;90.73;40.17;;;7.10;99.90;;;;;;6214918;23;20152;-73
2023/02/10 10:55:46;;;;;;;100.20;39.97;;;7.00;99.90;;;;;;6216081;23;20191;-72
2023/02/10 10:58:34;;;;;;;84.10;37.07;;;7.10;99.90;;;;;;6214157;23;20139;-73
2023/02/10 11:01:02;;;;;;;78.63;35.83;;;7.10;99.90;;;;;;6215999;23;20170;-73
2023/02/10 11:03:28;;;;;;;68.80;30.53;;;7.10;99.90;;;;;;6216193;23;20140;-73
2023/02/10 11:06:06;;;;;;;76.47;34.33;;;6.90;99.90;;;;;;6216478;23;20493;-72
2023/02/10 11:08:38;;;;;;;62.57;32.30;;;6.80;99.90;;;;;;6214428;23;20155;-72
2023/02/10 11:11:09;;;;;;;67.90;29.57;;;7.00;99.90;;;;;;6216090;23;20470;-73
2023/02/10 11:13:39;;;;;;;66.33;30.53;;;7.10;99.90;;;;;;6214352;23;20156;-72
2023/02/10 11:16:15;;;;;;;59.20;27.23;;;7.20;99.90;;;;;;6214900;23;20152;-72
2023/02/10 11:18:51;;;;;;;65.50;30.27;;;6.70;99.90;;;;;;6216246;23;20525;-72
2023/02/10 11:21:18;;;;;;;63.93;30.50;;;6.80;99.90;;;;;;6216166;23;20562;-72
2023/02/10 11:23:53;;;;;;;68.07;29.67;;;6.80;99.90;;;;;;6216027;23;20202;-72
2023/02/10 11:26:24;;;;;;;72.10;32.40;;;6.60;99.90;;;;;;6216049;23;20174;-72
2023/02/10 11:28:51;;;;;;;59.77;29.47;;;6.90;99.90;;;;;;6216375;23;20526;-73
2023/02/10 11:31:36;;;;;;;66.37;30.63;;;7.00;99.90;;;;;;6216017;23;20178;-73
2023/02/10 11:34:15;;;;;;;63.07;28.60;;;7.10;99.90;;;;;;6215708;23;20184;-72
2023/02/10 11:36:41;;;;;;;64.53;29.30;;;7.40;99.90;;;;;;6214638;23;20219;-72
2023/02/10 11:39:22;;;;;;;48.97;22.93;;;7.60;99.90;;;;;;6216133;23;20139;-72
2023/02/10 11:41:48;;;;;;;43.40;22.03;;;7.50;99.90;;;;;;6215370;23;20451;-72
2023/02/10 11:44:27;;;;;;;48.10;21.80;;;7.50;99.90;;;;;;6215872;23;20140;-73
2023/02/10 11:47:01;;;;;;;44.17;20.57;;;7.50;99.90;;;;;;6216017;23;20147;-72
2023/02/10 11:49:31;;;;;;;48.00;21.27;;;7.60;99.90;;;;;;6214391;23;20178;-72
2023/02/10 11:51:58;;;;;;;46.20;21.30;;;7.70;99.90;;;;;;6215681;23;20128;-72
2023/02/10 11:54:25;;;;;;;48.53;22.30;;;7.70;99.90;;;;;;6213555;23;20190;-73
2023/02/10 12:00:13;;;;;;;44.37;21.70;;;7.60;99.90;;;;;;6215728;23;20139;-74
2023/02/10 12:03:07;;;;;;;47.60;22.90;;;7.70;99.90;;;;;;6214371;23;20230;-72
2023/02/10 12:05:45;;;;;;;53.87;22.90;;;7.70;99.90;;;;;;6215538;23;20148;-73
2023/02/10 12:08:26;;;;;;;46.30;21.97;;;7.80;99.90;;;;;;6214257;23;20202;-72
2023/02/10 12:11:05;;;;;;;48.60;22.17;;;7.70;99.90;;;;;;6215269;23;20136;-73
2023/02/10 12:14:19;;;;;;;48.33;24.20;;;7.70;99.90;;;;;;6215759;23;20477;-73
2023/02/10 12:16:57;;;;;;;46.30;22.07;;;7.70;99.90;;;;;;6123240;23;20161;-73
2023/02/10 12:19:25;;;;;;;53.40;24.80;;;7.70;99.90;;;;;;6211995;23;20204;-72
2023/02/10 12:22:27;;;;;;;44.43;23.57;;;7.70;99.90;;;;;;6215439;23;20133;-72
2023/02/10 12:24:55;;;;;;;43.00;22.87;;;7.70;99.90;;;;;;6199893;23;20581;-73
2023/02/10 12:27:30;;;;;;;41.53;21.73;;;7.70;99.90;;;;;;6214197;23;20536;-73
2023/02/10 12:30:18;;;;;;;39.07;19.47;;;7.70;99.90;;;;;;6215903;23;20142;-72
2023/02/10 12:32:50;;;;;;;40.90;20.90;;;7.80;99.90;;;;;;6215710;23;20597;-72
2023/02/10 12:35:30;;;;;;;43.57;22.37;;;7.80;99.90;;;;;;6215346;23;20704;-72
2023/02/10 12:38:15;;;;;;;38.80;20.77;;;7.90;99.90;;;;;;6215658;23;20136;-72
2023/02/10 12:40:49;;;;;;;42.00;21.50;;;8.00;99.90;;;;;;6214183;23;20586;-72
2023/02/10 12:43:49;;;;;;;39.43;22.40;;;8.10;99.90;;;;;;6216158;23;20148;-73
2023/02/10 12:46:40;;;;;;;39.37;21.27;;;8.30;99.90;;;;;;6214319;23;20220;-73
2023/02/10 12:49:27;;;;;;;49.60;24.47;;;8.10;99.90;;;;;;6216225;23;20242;-72
2023/02/10 12:52:02;;;;;;;47.13;24.57;;;8.10;99.90;;;;;;6215164;23;20148;-72
2023/02/10 12:54:48;;;;;;;45.00;22.93;;;8.10;99.90;;;;;;6215186;23;20173;-72
2023/02/10 12:57:14;;;;;;;45.80;22.77;;;8.00;99.90;;;;;;6215153;23;20148;-72